sensor_id;sensor_type;location;lat;lon;timestamp;P1;durP1;ratioP1;P2;durP2;ratioP2
5569;SDS011;2808;51.240;6.794;2023-02-22T00:00:18;74.93;;;27.70;;
5569;SDS011;2808;51.240;6.794;2023-02-22T00:02:53;85.90;;;27.77;;
5569;SDS011;2808;51.240;6.794;2023-02-22T00:05:24;87.47;;;28.90;;
5569;SDS011;2808;51.240;6.794;2023-02-22T00:07:56;74.10;;;27.30;;
5569;SDS011;2808;51.240;6.794;2023-02-22T00:10:25;80.13;;;28.13;;
5569;SDS011;2808;51.240;6.794;2023-02-22T00:12:53;82.87;;;27.67;;
5569;SDS011;2808;51.240;6.794;2023-02-22T00:15:22;68.80;;;25.93;;
5569;SDS011;2808;51.240;6.794;2023-02-22T00:17:52;74.23;;;26.83;;
5569;SDS011;2808;51.240;6.794;2023-02-22T00:20:21;67.73;;;23.70;;
5569;SDS011;2808;51.240;6.794;2023-02-22T00:22:49;60.10;;;22.00;;
5569;SDS011;2808;51.240;6.794;2023-02-22T00:25:19;58.77;;;21.10;;
5569;SDS011;2808;51.240;6.794;2023-02-22T00:27:49;55.17;;;20.37;;
5569;SDS011;2808;51.240;6.794;2023-02-22T00:30:18;65.87;;;22.63;;
5569;SDS011;2808;51.240;6.794;2023-02-22T00:32:50;56.07;;;21.57;;
5569;SDS011;2808;51.240;6.794;2023-02-22T00:35:20;55.13;;;20.00;;
5569;SDS011;2808;51.240;6.794;2023-02-22T00:37:51;66.67;;;20.27;;
5569;SDS011;2808;51.240;6.794;2023-02-22T00:40:25;54.70;;;20.37;;
5569;SDS011;2808;51.240;6.794;2023-02-22T00:42:55;58.20;;;20.20;;
5569;SDS011;2808;51.240;6.794;2023-02-22T00:45:23;100.00;;;18.57;;
5569;SDS011;2808;51.240;6.794;2023-02-22T00:47:56;51.53;;;19.80;;
5569;SDS011;2808;51.240;6.794;2023-02-22T00:50:25;85.67;;;19.10;;
5569;SDS011;2808;51.240;6.794;2023-02-22T00:52:53;50.60;;;18.00;;
5569;SDS011;2808;51.240;6.794;2023-02-22T00:55:22;55.00;;;16.90;;
5569;SDS011;2808;51.240;6.794;2023-02-22T00:57:54;54.43;;;20.40;;
5569;SDS011;2808;51.240;6.794;2023-02-22T01:00:23;67.47;;;17.60;;
5569;SDS011;2808;51.240;6.794;2023-02-22T01:02:52;49.00;;;18.27;;
5569;SDS011;2808;51.240;6.794;2023-02-22T01:05:21;55.87;;;17.37;;
5569;SDS011;2808;51.240;6.794;2023-02-22T01:07:50;57.40;;;18.93;;
5569;SDS011;2808;51.240;6.794;2023-02-22T01:10:18;43.30;;;17.30;;
5569;SDS011;2808;51.240;6.794;2023-02-22T01:12:48;42.00;;;16.70;;
5569;SDS011;2808;51.240;6.794;2023-02-22T01:15:18;52.73;;;16.90;;
5569;SDS011;2808;51.240;6.794;2023-02-22T01:17:47;61.17;;;16.73;;
5569;SDS011;2808;51.240;6.794;2023-02-22T01:20:16;69.60;;;17.20;;
5569;SDS011;2808;51.240;6.794;2023-02-22T01:22:47;155.90;;;20.53;;
5569;SDS011;2808;51.240;6.794;2023-02-22T01:25:18;73.10;;;17.70;;
5569;SDS011;2808;51.240;6.794;2023-02-22T01:27:48;65.17;;;19.27;;
5569;SDS011;2808;51.240;6.794;2023-02-22T01:30:19;99.63;;;19.90;;
5569;SDS011;2808;51.240;6.794;2023-02-22T01:32:48;72.43;;;19.80;;
5569;SDS011;2808;51.240;6.794;2023-02-22T01:35:20;60.63;;;18.20;;
5569;SDS011;2808;51.240;6.794;2023-02-22T01:37:48;65.10;;;18.77;;
5569;SDS011;2808;51.240;6.794;2023-02-22T01:40:17;73.97;;;20.03;;
5569;SDS011;2808;51.240;6.794;2023-02-22T01:42:49;76.00;;;21.07;;
5569;SDS011;2808;51.240;6.794;2023-02-22T01:45:41;89.30;;;20.00;;
5569;SDS011;2808;51.240;6.794;2023-02-22T01:48:14;98.50;;;18.13;;
5569;SDS011;2808;51.240;6.794;2023-02-22T01:50:49;72.07;;;21.33;;
5569;SDS011;2808;51.240;6.794;2023-02-22T01:53:21;68.53;;;19.10;;
5569;SDS011;2808;51.240;6.794;2023-02-22T01:55:51;61.33;;;20.67;;
5569;SDS011;2808;51.240;6.794;2023-02-22T01:58:22;152.47;;;21.87;;
5569;SDS011;2808;51.240;6.794;2023-02-22T02:00:53;83.60;;;20.53;;
5569;SDS011;2808;51.240;6.794;2023-02-22T02:03:24;64.43;;;20.33;;
5569;SDS011;2808;51.240;6.794;2023-02-22T02:05:54;86.90;;;20.73;;
5569;SDS011;2808;51.240;6.794;2023-02-22T02:08:28;74.37;;;20.90;;
5569;SDS011;2808;51.240;6.794;2023-02-22T02:11:01;71.43;;;20.23;;
5569;SDS011;2808;51.240;6.794;2023-02-22T02:13:32;71.03;;;21.50;;
5569;SDS011;2808;51.240;6.794;2023-02-22T02:16:00;69.93;;;19.30;;
5569;SDS011;2808;51.240;6.794;2023-02-22T02:18:28;68.67;;;20.13;;
5569;SDS011;2808;51.240;6.794;2023-02-22T02:21:06;77.13;;;19.77;;
5569;SDS011;2808;51.240;6.794;2023-02-22T02:24:08;60.70;;;18.40;;
5569;SDS011;2808;51.240;6.794;2023-02-22T02:27:10;57.87;;;17.80;;
5569;SDS011;2808;51.240;6.794;2023-02-22T02:32:52;81.47;;;21.27;;
5569;SDS011;2808;51.240;6.794;2023-02-22T02:35:27;83.97;;;18.90;;
5569;SDS011;2808;51.240;6.794;2023-02-22T02:38:01;73.10;;;20.60;;
5569;SDS011;2808;51.240;6.794;2023-02-22T02:40:36;70.83;;;20.03;;
5569;SDS011;2808;51.240;6.794;2023-02-22T02:43:11;74.80;;;18.47;;
5569;SDS011;2808;51.240;6.794;2023-02-22T02:45:44;90.33;;;19.43;;
5569;SDS011;2808;51.240;6.794;2023-02-22T02:48:19;88.57;;;19.87;;
5569;SDS011;2808;51.240;6.794;2023-02-22T02:50:50;88.83;;;21.33;;
5569;SDS011;2808;51.240;6.794;2023-02-22T02:53:21;67.90;;;20.90;;
5569;SDS011;2808;51.240;6.794;2023-02-22T02:55:53;100.27;;;19.87;;
5569;SDS011;2808;51.240;6.794;2023-02-22T02:58:23;97.80;;;21.43;;
5569;SDS011;2808;51.240;6.794;2023-02-22T03:00:51;95.43;;;18.10;;
5569;SDS011;2808;51.240;6.794;2023-02-22T03:03:45;96.83;;;19.30;;
5569;SDS011;2808;51.240;6.794;2023-02-22T03:06:39;79.73;;;19.00;;
5569;SDS011;2808;51.240;6.794;2023-02-22T03:09:22;70.20;;;19.80;;
5569;SDS011;2808;51.240;6.794;2023-02-22T03:12:04;64.93;;;18.23;;
5569;SDS011;2808;51.240;6.794;2023-02-22T03:14:44;63.37;;;20.20;;
5569;SDS011;2808;51.240;6.794;2023-02-22T03:17:21;55.93;;;19.37;;
5569;SDS011;2808;51.240;6.794;2023-02-22T03:19:57;53.90;;;19.47;;
5569;SDS011;2808;51.240;6.794;2023-02-22T03:22:35;67.97;;;20.30;;
5569;SDS011;2808;51.240;6.794;2023-02-22T03:25:09;65.03;;;20.00;;
5569;SDS011;2808;51.240;6.794;2023-02-22T03:27:40;74.27;;;19.70;;
5569;SDS011;2808;51.240;6.794;2023-02-22T03:30:13;65.63;;;19.23;;
5569;SDS011;2808;51.240;6.794;2023-02-22T03:32:45;53.87;;;18.87;;
5569;SDS011;2808;51.240;6.794;2023-02-22T03:35:18;67.87;;;20.27;;
5569;SDS011;2808;51.240;6.794;2023-02-22T03:37:49;50.57;;;20.20;;
5569;SDS011;2808;51.240;6.794;2023-02-22T03:40:22;52.93;;;19.97;;
5569;SDS011;2808;51.240;6.794;2023-02-22T03:42:54;65.30;;;20.70;;
5569;SDS011;2808;51.240;6.794;2023-02-22T03:45:26;64.30;;;21.13;;
5569;SDS011;2808;51.240;6.794;2023-02-22T03:47:57;64.47;;;21.20;;
5569;SDS011;2808;51.240;6.794;2023-02-22T03:50:32;74.50;;;23.87;;
5569;SDS011;2808;51.240;6.794;2023-02-22T03:53:02;66.27;;;22.10;;
5569;SDS011;2808;51.240;6.794;2023-02-22T03:55:31;72.60;;;21.67;;
5569;SDS011;2808;51.240;6.794;2023-02-22T03:58:00;67.63;;;21.27;;
5569;SDS011;2808;51.240;6.794;2023-02-22T04:00:31;70.13;;;22.17;;
5569;SDS011;2808;51.240;6.794;2023-02-22T04:03:00;74.47;;;22.47;;
5569;SDS011;2808;51.240;6.794;2023-02-22T04:05:29;59.17;;;21.63;;
5569;SDS011;2808;51.240;6.794;2023-02-22T04:07:57;68.63;;;21.23;;
5569;SDS011;2808;51.240;6.794;2023-02-22T04:10:25;66.70;;;22.10;;
5569;SDS011;2808;51.240;6.794;2023-02-22T04:12:53;60.13;;;21.63;;
5569;SDS011;2808;51.240;6.794;2023-02-22T04:15:21;67.53;;;23.97;;
5569;SDS011;2808;51.240;6.794;2023-02-22T04:17:49;87.13;;;23.47;;
5569;SDS011;2808;51.240;6.794;2023-02-22T04:20:17;75.63;;;22.90;;
5569;SDS011;2808;51.240;6.794;2023-02-22T04:22:51;81.33;;;25.23;;
5569;SDS011;2808;51.240;6.794;2023-02-22T04:25:19;88.80;;;28.57;;
5569;SDS011;2808;51.240;6.794;2023-02-22T04:27:47;90.30;;;27.20;;
5569;SDS011;2808;51.240;6.794;2023-02-22T04:30:15;91.50;;;26.33;;
5569;SDS011;2808;51.240;6.794;2023-02-22T04:32:44;93.17;;;25.70;;
5569;SDS011;2808;51.240;6.794;2023-02-22T04:35:12;84.70;;;28.50;;
5569;SDS011;2808;51.240;6.794;2023-02-22T04:37:39;88.33;;;24.60;;
5569;SDS011;2808;51.240;6.794;2023-02-22T04:40:08;79.00;;;24.43;;
5569;SDS011;2808;51.240;6.794;2023-02-22T04:42:36;86.90;;;25.27;;
5569;SDS011;2808;51.240;6.794;2023-02-22T04:45:05;73.07;;;25.00;;
5569;SDS011;2808;51.240;6.794;2023-02-22T04:47:34;93.63;;;25.00;;
5569;SDS011;2808;51.240;6.794;2023-02-22T04:50:02;80.23;;;26.10;;
5569;SDS011;2808;51.240;6.794;2023-02-22T04:52:29;70.97;;;23.90;;
5569;SDS011;2808;51.240;6.794;2023-02-22T04:54:57;75.43;;;25.23;;
5569;SDS011;2808;51.240;6.794;2023-02-22T04:57:26;94.50;;;26.77;;
5569;SDS011;2808;51.240;6.794;2023-02-22T04:59:54;90.03;;;27.23;;
5569;SDS011;2808;51.240;6.794;2023-02-22T05:02:21;79.07;;;25.50;;
5569;SDS011;2808;51.240;6.794;2023-02-22T05:04:49;73.77;;;25.70;;
5569;SDS011;2808;51.240;6.794;2023-02-22T05:07:16;63.80;;;24.30;;
5569;SDS011;2808;51.240;6.794;2023-02-22T05:09:44;67.70;;;25.60;;
5569;SDS011;2808;51.240;6.794;2023-02-22T05:12:11;58.70;;;23.47;;
5569;SDS011;2808;51.240;6.794;2023-02-22T05:14:40;75.00;;;26.00;;
5569;SDS011;2808;51.240;6.794;2023-02-22T05:17:08;67.43;;;24.87;;
5569;SDS011;2808;51.240;6.794;2023-02-22T05:19:36;70.77;;;26.70;;
5569;SDS011;2808;51.240;6.794;2023-02-22T05:22:03;74.03;;;28.37;;
5569;SDS011;2808;51.240;6.794;2023-02-22T05:24:31;65.90;;;24.90;;
5569;SDS011;2808;51.240;6.794;2023-02-22T05:27:01;66.60;;;26.20;;
5569;SDS011;2808;51.240;6.794;2023-02-22T05:29:28;67.80;;;24.53;;
5569;SDS011;2808;51.240;6.794;2023-02-22T05:31:57;64.73;;;23.13;;
5569;SDS011;2808;51.240;6.794;2023-02-22T05:34:26;62.87;;;24.20;;
5569;SDS011;2808;51.240;6.794;2023-02-22T05:36:54;76.00;;;25.03;;
5569;SDS011;2808;51.240;6.794;2023-02-22T05:39:22;70.33;;;24.47;;
5569;SDS011;2808;51.240;6.794;2023-02-22T05:41:49;63.67;;;22.10;;
5569;SDS011;2808;51.240;6.794;2023-02-22T05:44:17;64.47;;;21.77;;
5569;SDS011;2808;51.240;6.794;2023-02-22T05:46:46;47.03;;;20.17;;
5569;SDS011;2808;51.240;6.794;2023-02-22T05:49:15;53.57;;;20.93;;
5569;SDS011;2808;51.240;6.794;2023-02-22T05:51:42;61.53;;;21.70;;
5569;SDS011;2808;51.240;6.794;2023-02-22T05:54:10;45.57;;;19.00;;
5569;SDS011;2808;51.240;6.794;2023-02-22T05:56:37;56.97;;;19.80;;
5569;SDS011;2808;51.240;6.794;2023-02-22T05:59:04;48.60;;;19.73;;
5569;SDS011;2808;51.240;6.794;2023-02-22T06:01:32;53.33;;;19.93;;
5569;SDS011;2808;51.240;6.794;2023-02-22T06:04:00;47.83;;;19.67;;
5569;SDS011;2808;51.240;6.794;2023-02-22T06:06:28;49.50;;;20.00;;
5569;SDS011;2808;51.240;6.794;2023-02-22T06:08:56;45.47;;;19.73;;
5569;SDS011;2808;51.240;6.794;2023-02-22T06:11:23;52.90;;;18.90;;
5569;SDS011;2808;51.240;6.794;2023-02-22T06:13:51;49.33;;;18.93;;
5569;SDS011;2808;51.240;6.794;2023-02-22T06:16:19;49.03;;;18.20;;
5569;SDS011;2808;51.240;6.794;2023-02-22T06:18:47;51.77;;;19.10;;
5569;SDS011;2808;51.240;6.794;2023-02-22T06:21:15;48.57;;;19.33;;
5569;SDS011;2808;51.240;6.794;2023-02-22T06:23:44;47.27;;;18.63;;
5569;SDS011;2808;51.240;6.794;2023-02-22T06:26:11;50.63;;;19.57;;
5569;SDS011;2808;51.240;6.794;2023-02-22T06:28:42;44.97;;;18.00;;
5569;SDS011;2808;51.240;6.794;2023-02-22T06:31:19;42.67;;;19.37;;
5569;SDS011;2808;51.240;6.794;2023-02-22T06:33:46;44.73;;;17.67;;
5569;SDS011;2808;51.240;6.794;2023-02-22T06:36:13;47.73;;;18.80;;
5569;SDS011;2808;51.240;6.794;2023-02-22T06:38:45;43.73;;;18.10;;
5569;SDS011;2808;51.240;6.794;2023-02-22T06:41:12;41.67;;;16.87;;
5569;SDS011;2808;51.240;6.794;2023-02-22T06:43:40;44.00;;;17.17;;
5569;SDS011;2808;51.240;6.794;2023-02-22T06:46:08;40.37;;;17.27;;
5569;SDS011;2808;51.240;6.794;2023-02-22T06:48:36;45.10;;;17.17;;
5569;SDS011;2808;51.240;6.794;2023-02-22T06:51:04;44.87;;;18.63;;
5569;SDS011;2808;51.240;6.794;2023-02-22T06:53:33;44.67;;;19.90;;
5569;SDS011;2808;51.240;6.794;2023-02-22T06:56:02;43.83;;;19.00;;
5569;SDS011;2808;51.240;6.794;2023-02-22T06:58:31;45.13;;;19.83;;
5569;SDS011;2808;51.240;6.794;2023-02-22T07:01:00;52.87;;;21.70;;
5569;SDS011;2808;51.240;6.794;2023-02-22T07:03:28;52.70;;;21.90;;
5569;SDS011;2808;51.240;6.794;2023-02-22T07:05:55;47.03;;;21.30;;
5569;SDS011;2808;51.240;6.794;2023-02-22T07:08:23;50.20;;;21.00;;
5569;SDS011;2808;51.240;6.794;2023-02-22T07:10:50;56.00;;;22.80;;
5569;SDS011;2808;51.240;6.794;2023-02-22T07:13:19;59.33;;;24.80;;
5569;SDS011;2808;51.240;6.794;2023-02-22T07:15:46;57.17;;;26.57;;
5569;SDS011;2808;51.240;6.794;2023-02-22T07:18:14;59.07;;;26.20;;
5569;SDS011;2808;51.240;6.794;2023-02-22T07:20:41;62.13;;;25.00;;
5569;SDS011;2808;51.240;6.794;2023-02-22T07:23:09;60.73;;;23.80;;
5569;SDS011;2808;51.240;6.794;2023-02-22T07:25:40;48.97;;;23.03;;
5569;SDS011;2808;51.240;6.794;2023-02-22T07:28:08;44.53;;;19.93;;
5569;SDS011;2808;51.240;6.794;2023-02-22T07:30:38;38.60;;;16.93;;
5569;SDS011;2808;51.240;6.794;2023-02-22T07:33:06;35.77;;;16.30;;
5569;SDS011;2808;51.240;6.794;2023-02-22T07:35:36;34.83;;;15.90;;
5569;SDS011;2808;51.240;6.794;2023-02-22T07:38:05;33.50;;;15.70;;
5569;SDS011;2808;51.240;6.794;2023-02-22T07:40:33;35.30;;;15.33;;
5569;SDS011;2808;51.240;6.794;2023-02-22T07:43:05;39.30;;;15.60;;
5569;SDS011;2808;51.240;6.794;2023-02-22T07:45:42;32.93;;;15.03;;
5569;SDS011;2808;51.240;6.794;2023-02-22T07:48:13;33.13;;;13.73;;
5569;SDS011;2808;51.240;6.794;2023-02-22T07:50:47;32.13;;;13.50;;
5569;SDS011;2808;51.240;6.794;2023-02-22T07:53:16;33.77;;;13.13;;
5569;SDS011;2808;51.240;6.794;2023-02-22T07:56:01;28.70;;;14.37;;
5569;SDS011;2808;51.240;6.794;2023-02-22T07:58:30;28.17;;;13.90;;
5569;SDS011;2808;51.240;6.794;2023-02-22T08:01:01;37.80;;;14.23;;
5569;SDS011;2808;51.240;6.794;2023-02-22T08:03:48;23.17;;;12.33;;
5569;SDS011;2808;51.240;6.794;2023-02-22T08:06:16;30.00;;;13.00;;
5569;SDS011;2808;51.240;6.794;2023-02-22T08:08:45;28.80;;;13.00;;
5569;SDS011;2808;51.240;6.794;2023-02-22T08:14:34;30.90;;;13.30;;
5569;SDS011;2808;51.240;6.794;2023-02-22T08:17:09;29.07;;;13.93;;
5569;SDS011;2808;51.240;6.794;2023-02-22T08:19:39;22.90;;;12.07;;
5569;SDS011;2808;51.240;6.794;2023-02-22T08:22:07;38.40;;;13.73;;
5569;SDS011;2808;51.240;6.794;2023-02-22T08:24:43;26.73;;;12.40;;
5569;SDS011;2808;51.240;6.794;2023-02-22T08:27:24;23.83;;;12.50;;
5569;SDS011;2808;51.240;6.794;2023-02-22T08:30:00;28.67;;;13.67;;
5569;SDS011;2808;51.240;6.794;2023-02-22T08:32:33;27.30;;;13.67;;
5569;SDS011;2808;51.240;6.794;2023-02-22T08:35:01;27.27;;;13.23;;
5569;SDS011;2808;51.240;6.794;2023-02-22T08:37:28;29.93;;;13.17;;
5569;SDS011;2808;51.240;6.794;2023-02-22T08:39:56;34.83;;;12.97;;
5569;SDS011;2808;51.240;6.794;2023-02-22T08:42:23;24.57;;;12.70;;
5569;SDS011;2808;51.240;6.794;2023-02-22T08:44:51;26.20;;;11.63;;
5569;SDS011;2808;51.240;6.794;2023-02-22T08:47:19;26.53;;;12.87;;
5569;SDS011;2808;51.240;6.794;2023-02-22T08:49:55;26.40;;;11.73;;
5569;SDS011;2808;51.240;6.794;2023-02-22T08:52:23;29.73;;;13.10;;
5569;SDS011;2808;51.240;6.794;2023-02-22T08:54:52;26.50;;;11.30;;
5569;SDS011;2808;51.240;6.794;2023-02-22T08:57:20;20.10;;;11.30;;
5569;SDS011;2808;51.240;6.794;2023-02-22T08:59:48;33.80;;;15.33;;
5569;SDS011;2808;51.240;6.794;2023-02-22T09:02:18;22.13;;;11.47;;
5569;SDS011;2808;51.240;6.794;2023-02-22T09:04:49;25.07;;;12.30;;
5569;SDS011;2808;51.240;6.794;2023-02-22T09:07:18;23.90;;;12.80;;
5569;SDS011;2808;51.240;6.794;2023-02-22T09:09:47;29.67;;;13.27;;
5569;SDS011;2808;51.240;6.794;2023-02-22T09:12:14;28.07;;;12.50;;
5569;SDS011;2808;51.240;6.794;2023-02-22T09:14:42;30.03;;;13.50;;
5569;SDS011;2808;51.240;6.794;2023-02-22T09:17:10;25.70;;;13.10;;
5569;SDS011;2808;51.240;6.794;2023-02-22T09:19:39;27.20;;;13.07;;
5569;SDS011;2808;51.240;6.794;2023-02-22T09:22:07;23.60;;;12.83;;
5569;SDS011;2808;51.240;6.794;2023-02-22T09:24:37;25.30;;;12.00;;
5569;SDS011;2808;51.240;6.794;2023-02-22T09:27:07;30.50;;;12.33;;
5569;SDS011;2808;51.240;6.794;2023-02-22T09:29:36;33.17;;;14.67;;
5569;SDS011;2808;51.240;6.794;2023-02-22T09:32:04;26.97;;;13.47;;
5569;SDS011;2808;51.240;6.794;2023-02-22T09:34:34;29.50;;;14.80;;
5569;SDS011;2808;51.240;6.794;2023-02-22T09:37:01;24.80;;;12.67;;
5569;SDS011;2808;51.240;6.794;2023-02-22T09:39:33;29.20;;;13.40;;
5569;SDS011;2808;51.240;6.794;2023-02-22T09:42:07;27.37;;;13.33;;
5569;SDS011;2808;51.240;6.794;2023-02-22T09:44:42;27.90;;;12.87;;
5569;SDS011;2808;51.240;6.794;2023-02-22T09:47:18;28.57;;;13.93;;
5569;SDS011;2808;51.240;6.794;2023-02-22T09:49:57;29.30;;;13.17;;
5569;SDS011;2808;51.240;6.794;2023-02-22T09:52:29;25.67;;;13.43;;
5569;SDS011;2808;51.240;6.794;2023-02-22T09:55:03;27.20;;;13.30;;
5569;SDS011;2808;51.240;6.794;2023-02-22T09:57:36;27.60;;;13.33;;
5569;SDS011;2808;51.240;6.794;2023-02-22T10:00:11;28.47;;;14.03;;
5569;SDS011;2808;51.240;6.794;2023-02-22T10:02:43;26.50;;;13.50;;
5569;SDS011;2808;51.240;6.794;2023-02-22T10:05:18;24.03;;;13.20;;
5569;SDS011;2808;51.240;6.794;2023-02-22T10:07:52;29.43;;;14.17;;
5569;SDS011;2808;51.240;6.794;2023-02-22T10:10:25;25.97;;;13.67;;
5569;SDS011;2808;51.240;6.794;2023-02-22T10:13:00;28.40;;;14.40;;
5569;SDS011;2808;51.240;6.794;2023-02-22T10:15:41;23.20;;;13.30;;
5569;SDS011;2808;51.240;6.794;2023-02-22T10:21:16;28.33;;;13.77;;
5569;SDS011;2808;51.240;6.794;2023-02-22T10:24:10;30.83;;;14.17;;
5569;SDS011;2808;51.240;6.794;2023-02-22T10:26:48;26.43;;;13.60;;
5569;SDS011;2808;51.240;6.794;2023-02-22T10:29:21;24.93;;;12.57;;
5569;SDS011;2808;51.240;6.794;2023-02-22T10:32:07;29.27;;;13.07;;
5569;SDS011;2808;51.240;6.794;2023-02-22T10:34:42;22.53;;;12.13;;
5569;SDS011;2808;51.240;6.794;2023-02-22T10:37:17;27.50;;;12.00;;
5569;SDS011;2808;51.240;6.794;2023-02-22T10:39:53;23.43;;;13.17;;
5569;SDS011;2808;51.240;6.794;2023-02-22T10:42:29;26.03;;;11.70;;
5569;SDS011;2808;51.240;6.794;2023-02-22T10:44:58;26.27;;;12.57;;
5569;SDS011;2808;51.240;6.794;2023-02-22T10:47:35;24.37;;;11.70;;
5569;SDS011;2808;51.240;6.794;2023-02-22T10:50:03;23.47;;;11.07;;
5569;SDS011;2808;51.240;6.794;2023-02-22T10:52:32;22.63;;;11.20;;
5569;SDS011;2808;51.240;6.794;2023-02-22T10:55:01;27.47;;;12.00;;
5569;SDS011;2808;51.240;6.794;2023-02-22T10:57:31;19.03;;;10.70;;
5569;SDS011;2808;51.240;6.794;2023-02-22T11:00:13;23.80;;;10.27;;
5569;SDS011;2808;51.240;6.794;2023-02-22T11:02:51;23.67;;;10.83;;
5569;SDS011;2808;51.240;6.794;2023-02-22T11:05:26;28.97;;;11.73;;
5569;SDS011;2808;51.240;6.794;2023-02-22T11:10:48;22.27;;;10.30;;
5569;SDS011;2808;51.240;6.794;2023-02-22T11:13:18;19.43;;;10.10;;
5569;SDS011;2808;51.240;6.794;2023-02-22T11:15:56;21.53;;;10.47;;
5569;SDS011;2808;51.240;6.794;2023-02-22T11:18:28;17.93;;;9.47;;
5569;SDS011;2808;51.240;6.794;2023-02-22T11:20:58;17.70;;;9.20;;
5569;SDS011;2808;51.240;6.794;2023-02-22T11:23:27;26.20;;;9.57;;
5569;SDS011;2808;51.240;6.794;2023-02-22T11:26:03;21.87;;;8.90;;
5569;SDS011;2808;51.240;6.794;2023-02-22T11:28:34;22.87;;;9.03;;
5569;SDS011;2808;51.240;6.794;2023-02-22T11:31:12;17.10;;;9.03;;
5569;SDS011;2808;51.240;6.794;2023-02-22T11:33:45;17.70;;;9.33;;
5569;SDS011;2808;51.240;6.794;2023-02-22T11:36:28;18.50;;;8.73;;
5569;SDS011;2808;51.240;6.794;2023-02-22T11:38:57;16.80;;;8.30;;
5569;SDS011;2808;51.240;6.794;2023-02-22T11:41:30;19.67;;;8.90;;
5569;SDS011;2808;51.240;6.794;2023-02-22T11:44:11;19.87;;;10.77;;
5569;SDS011;2808;51.240;6.794;2023-02-22T11:46:47;20.57;;;9.00;;
5569;SDS011;2808;51.240;6.794;2023-02-22T11:49:20;16.93;;;8.93;;
5569;SDS011;2808;51.240;6.794;2023-02-22T11:54:43;20.20;;;9.60;;
5569;SDS011;2808;51.240;6.794;2023-02-22T11:57:25;18.60;;;9.07;;
5569;SDS011;2808;51.240;6.794;2023-02-22T12:00:14;26.63;;;10.67;;
5569;SDS011;2808;51.240;6.794;2023-02-22T12:06:01;17.47;;;9.03;;
5569;SDS011;2808;51.240;6.794;2023-02-22T12:08:46;22.30;;;9.50;;
5569;SDS011;2808;51.240;6.794;2023-02-22T12:11:22;17.67;;;8.53;;
5569;SDS011;2808;51.240;6.794;2023-02-22T12:14:04;25.63;;;10.50;;
5569;SDS011;2808;51.240;6.794;2023-02-22T12:16:55;22.23;;;8.90;;
5569;SDS011;2808;51.240;6.794;2023-02-22T12:19:46;21.10;;;10.57;;
5569;SDS011;2808;51.240;6.794;2023-02-22T12:22:18;20.77;;;10.23;;
5569;SDS011;2808;51.240;6.794;2023-02-22T12:24:53;18.87;;;9.87;;
5569;SDS011;2808;51.240;6.794;2023-02-22T12:27:25;19.00;;;9.83;;
5569;SDS011;2808;51.240;6.794;2023-02-22T12:29:58;24.20;;;10.37;;
5569;SDS011;2808;51.240;6.794;2023-02-22T12:32:31;17.40;;;8.97;;
5569;SDS011;2808;51.240;6.794;2023-02-22T12:35:10;22.67;;;9.50;;
5569;SDS011;2808;51.240;6.794;2023-02-22T12:37:46;20.20;;;9.77;;
5569;SDS011;2808;51.240;6.794;2023-02-22T12:40:23;19.10;;;9.97;;
5569;SDS011;2808;51.240;6.794;2023-02-22T12:43:00;21.30;;;10.10;;
5569;SDS011;2808;51.240;6.794;2023-02-22T12:45:35;24.33;;;9.87;;
5569;SDS011;2808;51.240;6.794;2023-02-22T12:48:21;19.17;;;9.77;;
5569;SDS011;2808;51.240;6.794;2023-02-22T12:50:58;19.70;;;10.37;;
5569;SDS011;2808;51.240;6.794;2023-02-22T12:53:33;16.83;;;10.17;;
5569;SDS011;2808;51.240;6.794;2023-02-22T12:56:18;21.33;;;9.90;;
5569;SDS011;2808;51.240;6.794;2023-02-22T12:59:03;21.37;;;9.20;;
5569;SDS011;2808;51.240;6.794;2023-02-22T13:01:47;17.80;;;9.07;;
5569;SDS011;2808;51.240;6.794;2023-02-22T13:04:29;18.30;;;9.93;;
5569;SDS011;2808;51.240;6.794;2023-02-22T13:07:08;21.73;;;9.13;;
5569;SDS011;2808;51.240;6.794;2023-02-22T13:10:02;17.43;;;8.97;;
5569;SDS011;2808;51.240;6.794;2023-02-22T13:12:47;15.00;;;7.90;;
5569;SDS011;2808;51.240;6.794;2023-02-22T13:15:26;15.70;;;8.87;;
5569;SDS011;2808;51.240;6.794;2023-02-22T13:18:40;18.00;;;8.70;;
5569;SDS011;2808;51.240;6.794;2023-02-22T13:21:51;18.67;;;8.03;;
5569;SDS011;2808;51.240;6.794;2023-02-22T13:24:27;15.20;;;7.80;;
5569;SDS011;2808;51.240;6.794;2023-02-22T13:27:18;15.83;;;8.37;;
5569;SDS011;2808;51.240;6.794;2023-02-22T13:29:51;24.50;;;8.97;;
5569;SDS011;2808;51.240;6.794;2023-02-22T13:32:30;18.37;;;8.20;;
5569;SDS011;2808;51.240;6.794;2023-02-22T13:35:11;19.37;;;7.40;;
5569;SDS011;2808;51.240;6.794;2023-02-22T13:38:09;15.90;;;7.53;;
5569;SDS011;2808;51.240;6.794;2023-02-22T13:41:07;18.77;;;8.50;;
5569;SDS011;2808;51.240;6.794;2023-02-22T13:44:04;20.23;;;9.23;;
5569;SDS011;2808;51.240;6.794;2023-02-22T13:47:22;35.67;;;10.10;;
5569;SDS011;2808;51.240;6.794;2023-02-22T13:53:20;15.47;;;8.40;;
5569;SDS011;2808;51.240;6.794;2023-02-22T13:55:57;17.60;;;8.30;;
5569;SDS011;2808;51.240;6.794;2023-02-22T13:58:27;17.87;;;9.13;;
5569;SDS011;2808;51.240;6.794;2023-02-22T14:00:56;17.30;;;8.23;;
5569;SDS011;2808;51.240;6.794;2023-02-22T14:03:29;23.73;;;8.53;;
5569;SDS011;2808;51.240;6.794;2023-02-22T14:06:05;17.27;;;7.43;;
5569;SDS011;2808;51.240;6.794;2023-02-22T14:08:56;15.73;;;7.73;;
5569;SDS011;2808;51.240;6.794;2023-02-22T14:14:26;17.20;;;8.60;;
5569;SDS011;2808;51.240;6.794;2023-02-22T14:22:46;22.43;;;8.40;;
5569;SDS011;2808;51.240;6.794;2023-02-22T14:25:36;18.00;;;8.63;;
5569;SDS011;2808;51.240;6.794;2023-02-22T14:28:06;18.07;;;8.90;;
5569;SDS011;2808;51.240;6.794;2023-02-22T14:31:04;18.73;;;8.90;;
5569;SDS011;2808;51.240;6.794;2023-02-22T14:33:52;16.27;;;8.00;;
5569;SDS011;2808;51.240;6.794;2023-02-22T14:36:26;19.30;;;8.60;;
5569;SDS011;2808;51.240;6.794;2023-02-22T14:39:01;17.83;;;8.50;;
5569;SDS011;2808;51.240;6.794;2023-02-22T14:41:37;18.43;;;8.87;;
5569;SDS011;2808;51.240;6.794;2023-02-22T14:44:11;16.27;;;8.10;;
5569;SDS011;2808;51.240;6.794;2023-02-22T14:46:48;16.87;;;8.23;;
5569;SDS011;2808;51.240;6.794;2023-02-22T14:49:20;16.50;;;8.53;;
5569;SDS011;2808;51.240;6.794;2023-02-22T14:51:55;16.43;;;8.70;;
5569;SDS011;2808;51.240;6.794;2023-02-22T14:54:29;20.73;;;8.67;;
5569;SDS011;2808;51.240;6.794;2023-02-22T14:57:07;14.27;;;8.50;;
5569;SDS011;2808;51.240;6.794;2023-02-22T15:02:46;21.13;;;8.83;;
5569;SDS011;2808;51.240;6.794;2023-02-22T15:05:17;23.60;;;9.37;;
5569;SDS011;2808;51.240;6.794;2023-02-22T15:07:52;19.50;;;9.13;;
5569;SDS011;2808;51.240;6.794;2023-02-22T15:10:29;22.00;;;8.50;;
5569;SDS011;2808;51.240;6.794;2023-02-22T15:13:15;22.37;;;9.50;;
5569;SDS011;2808;51.240;6.794;2023-02-22T15:15:48;17.83;;;8.80;;
5569;SDS011;2808;51.240;6.794;2023-02-22T15:18:26;15.50;;;8.90;;
5569;SDS011;2808;51.240;6.794;2023-02-22T15:21:02;20.20;;;8.87;;
5569;SDS011;2808;51.240;6.794;2023-02-22T15:23:44;14.53;;;8.13;;
5569;SDS011;2808;51.240;6.794;2023-02-22T15:26:17;18.00;;;8.20;;
5569;SDS011;2808;51.240;6.794;2023-02-22T15:28:52;16.93;;;8.80;;
5569;SDS011;2808;51.240;6.794;2023-02-22T15:31:25;15.37;;;8.40;;
5569;SDS011;2808;51.240;6.794;2023-02-22T15:33:58;15.43;;;8.97;;
5569;SDS011;2808;51.240;6.794;2023-02-22T15:36:43;15.73;;;9.13;;
5569;SDS011;2808;51.240;6.794;2023-02-22T15:39:17;15.33;;;8.50;;
5569;SDS011;2808;51.240;6.794;2023-02-22T15:41:59;21.43;;;8.97;;
5569;SDS011;2808;51.240;6.794;2023-02-22T15:44:28;18.13;;;8.50;;
5569;SDS011;2808;51.240;6.794;2023-02-22T15:47:01;22.87;;;8.90;;
5569;SDS011;2808;51.240;6.794;2023-02-22T15:49:33;18.20;;;9.73;;
5569;SDS011;2808;51.240;6.794;2023-02-22T15:52:06;17.47;;;7.80;;
5569;SDS011;2808;51.240;6.794;2023-02-22T15:54:42;14.30;;;9.07;;
5569;SDS011;2808;51.240;6.794;2023-02-22T15:57:12;18.40;;;10.20;;
5569;SDS011;2808;51.240;6.794;2023-02-22T15:59:44;14.67;;;8.97;;